Time;durP1;ratioP1;P1;durP2;ratioP2;P2;SDS_P1;SDS_P2;PMS_P1;PMS_P2;Temp;Humidity;BMP_temperature;BMP_pressure;BME280_temperature;BME280_humidity;BME280_pressure;Samples;Min_cycle;Max_cycle;Signal;HPM_P1;HPM_P2
2023/03/21 00:02:12;;;;;;;1.67;1.10;;;7.70;99.90;;;;;;5101121;28;21108;-74
2023/03/21 00:04:39;;;;;;;1.20;1.20;;;7.70;99.90;;;;;;5100544;28;20549;-77
2023/03/21 00:07:07;;;;;;;2.20;1.70;;;7.70;99.90;;;;;;5104118;28;20466;-75
2023/03/21 00:09:35;;;;;;;1.43;1.33;;;7.70;99.90;;;;;;5101562;28;20458;-75
2023/03/21 00:12:08;;;;;;;1.60;1.40;;;7.70;99.90;;;;;;5104380;28;20869;-76
2023/03/21 00:14:36;;;;;;;1.73;1.10;;;7.60;99.90;;;;;;5097419;28;20463;-76
2023/03/21 00:17:04;;;;;;;1.33;1.10;;;7.50;99.90;;;;;;5105490;28;20450;-75
2023/03/21 00:19:31;;;;;;;1.17;1.00;;;7.40;99.90;;;;;;5107758;28;20498;-75
2023/03/21 00:22:00;;;;;;;1.53;1.40;;;7.40;99.90;;;;;;5106248;28;20548;-75
2023/03/21 00:24:27;;;;;;;1.10;0.90;;;7.40;99.90;;;;;;5106098;28;20935;-77
2023/03/21 00:26:56;;;;;;;1.57;1.47;;;7.40;99.90;;;;;;5095109;28;20479;-75
2023/03/21 00:29:23;;;;;;;1.90;1.33;;;7.50;99.90;;;;;;5096006;28;21006;-76
2023/03/21 00:31:50;;;;;;;1.13;1.00;;;7.50;99.90;;;;;;5106000;28;20508;-75
2023/03/21 00:34:17;;;;;;;1.67;1.57;;;7.50;99.90;;;;;;5107360;28;20455;-76
2023/03/21 00:36:44;;;;;;;1.13;1.03;;;7.60;99.90;;;;;;5103376;28;20859;-76
2023/03/21 00:39:11;;;;;;;1.10;1.00;;;7.60;99.90;;;;;;5106746;28;21117;-75
2023/03/21 00:41:38;;;;;;;1.03;0.93;;;7.70;99.90;;;;;;5101548;28;20533;-76
2023/03/21 00:44:07;;;;;;;1.10;1.00;;;7.70;99.90;;;;;;5106478;28;20455;-75
2023/03/21 00:46:35;;;;;;;4.87;1.40;;;7.70;99.90;;;;;;5105612;28;20934;-76
2023/03/21 00:49:02;;;;;;;2.57;1.17;;;7.60;99.90;;;;;;5100855;28;20443;-78
2023/03/21 00:51:30;;;;;;;2.10;1.10;;;7.60;99.90;;;;;;5099893;28;20565;-75
2023/03/21 00:53:58;;;;;;;1.83;1.23;;;7.60;99.90;;;;;;5106513;28;20446;-75
2023/03/21 00:56:25;;;;;;;1.30;1.20;;;7.40;99.90;;;;;;5093762;28;21052;-76
2023/03/21 00:58:52;;;;;;;1.67;1.10;;;7.30;99.90;;;;;;5093084;28;21227;-75
2023/03/21 01:01:20;;;;;;;1.90;0.90;;;7.10;99.90;;;;;;5107470;28;20482;-75
2023/03/21 01:03:49;;;;;;;2.20;1.40;;;7.10;99.90;;;;;;5106966;28;20446;-76
2023/03/21 01:06:19;;;;;;;1.40;1.20;;;6.90;99.90;;;;;;5101419;28;20470;-77
2023/03/21 01:08:48;;;;;;;1.10;1.00;;;6.90;99.90;;;;;;5106708;28;20438;-75
2023/03/21 01:11:19;;;;;;;1.90;1.23;;;6.80;99.90;;;;;;5107333;28;20511;-76
2023/03/21 01:13:46;;;;;;;1.50;1.40;;;6.80;99.90;;;;;;5104978;28;20460;-76
2023/03/21 01:16:13;;;;;;;2.00;1.13;;;6.90;99.90;;;;;;5098080;28;20805;-75
2023/03/21 01:18:42;;;;;;;0.93;0.90;;;6.80;99.90;;;;;;5098141;28;20448;-76
2023/03/21 01:21:12;;;;;;;1.50;1.40;;;6.80;99.90;;;;;;5101561;28;20529;-75
2023/03/21 01:23:40;;;;;;;2.70;1.67;;;6.80;99.90;;;;;;5103708;28;20966;-77
2023/03/21 01:26:08;;;;;;;2.20;0.90;;;6.70;99.90;;;;;;5091671;28;20485;-75
2023/03/21 01:28:37;;;;;;;1.50;1.40;;;6.60;99.90;;;;;;5095827;28;20867;-75
2023/03/21 01:31:05;;;;;;;2.00;1.53;;;6.60;99.90;;;;;;5102010;28;20504;-75
2023/03/21 01:33:34;;;;;;;1.73;1.33;;;6.60;99.90;;;;;;5098974;28;20602;-76
2023/03/21 01:36:02;;;;;;;1.03;0.93;;;6.70;99.90;;;;;;5102604;28;20511;-75
2023/03/21 01:38:30;;;;;;;1.53;1.43;;;6.70;99.90;;;;;;5100749;28;21527;-78
2023/03/21 01:40:59;;;;;;;1.83;1.33;;;6.80;99.90;;;;;;5099210;28;20466;-75
2023/03/21 01:43:28;;;;;;;1.83;1.47;;;6.80;99.90;;;;;;5096083;28;20590;-76
2023/03/21 01:46:21;;;;;;;1.93;1.23;;;6.90;99.90;;;;;;5100358;28;20454;-75
2023/03/21 01:48:53;;;;;;;3.30;1.47;;;6.90;99.90;;;;;;5093827;28;20452;-75
2023/03/21 01:51:23;;;;;;;1.40;1.30;;;6.80;99.90;;;;;;5099450;28;20559;-76
2023/03/21 01:53:50;;;;;;;1.30;1.20;;;6.70;99.90;;;;;;5090452;28;20459;-75
2023/03/21 01:56:22;;;;;;;2.97;0.90;;;6.60;99.90;;;;;;5099127;28;20450;-75
2023/03/21 01:58:51;;;;;;;1.87;1.00;;;6.50;99.90;;;;;;5107536;28;20461;-76
2023/03/21 02:01:21;;;;;;;2.93;1.47;;;6.50;99.90;;;;;;5101692;28;20486;-75
2023/03/21 02:03:50;;;;;;;1.53;1.00;;;6.50;99.90;;;;;;5099719;28;20454;-76
2023/03/21 02:06:29;;;;;;;1.83;1.17;;;6.50;99.90;;;;;;5097955;28;20458;-76
2023/03/21 02:08:58;;;;;;;3.83;1.60;;;6.60;99.90;;;;;;5108250;28;20453;-75
2023/03/21 02:11:26;;;;;;;1.57;1.20;;;6.50;99.90;;;;;;5100393;28;20446;-76
2023/03/21 02:13:53;;;;;;;1.40;1.23;;;6.60;99.90;;;;;;5106624;28;20561;-76
2023/03/21 02:16:29;;;;;;;2.20;1.57;;;6.60;99.90;;;;;;5103952;28;20450;-75
2023/03/21 02:19:05;;;;;;;1.30;1.20;;;6.60;99.90;;;;;;5106452;28;20446;-76
2023/03/21 02:22:01;;;;;;;1.40;1.03;;;6.70;99.90;;;;;;5107424;28;20485;-75
2023/03/21 02:25:03;;;;;;;1.40;1.10;;;6.70;99.90;;;;;;5066603;28;20467;-76
2023/03/21 02:27:34;;;;;;;1.37;1.27;;;6.70;99.90;;;;;;5096585;28;20564;-75
2023/03/21 02:30:37;;;;;;;1.93;1.43;;;6.80;99.90;;;;;;5100165;28;20503;-75
2023/03/21 02:33:41;;;;;;;3.27;2.40;;;6.80;99.90;;;;;;5070714;28;20458;-76
2023/03/21 02:36:21;;;;;;;2.20;1.30;;;7.00;99.90;;;;;;5106419;28;20534;-75
2023/03/21 02:38:56;;;;;;;1.63;1.43;;;7.00;99.90;;;;;;5102364;28;20507;-75
2023/03/21 02:41:32;;;;;;;1.97;1.87;;;7.00;99.90;;;;;;5103552;28;20456;-75
2023/03/21 02:44:06;;;;;;;1.87;1.30;;;7.10;99.90;;;;;;5101837;28;20466;-75
2023/03/21 02:46:42;;;;;;;1.73;1.53;;;7.10;99.90;;;;;;5094877;28;20512;-75
2023/03/21 02:49:14;;;;;;;1.60;1.50;;;7.20;99.90;;;;;;5109132;28;20453;-75
2023/03/21 02:51:43;;;;;;;1.50;1.30;;;7.20;99.90;;;;;;5106035;28;20986;-75
2023/03/21 02:54:15;;;;;;;1.83;1.70;;;7.20;99.90;;;;;;5108057;28;20457;-75
2023/03/21 02:56:44;;;;;;;1.60;1.50;;;7.20;99.90;;;;;;5103735;28;20946;-75
2023/03/21 02:59:12;;;;;;;1.67;1.57;;;7.20;99.90;;;;;;5109120;28;20450;-75
2023/03/21 03:01:39;;;;;;;2.40;1.53;;;7.10;99.90;;;;;;5107691;28;20977;-76
2023/03/21 03:04:18;;;;;;;1.57;1.30;;;7.10;99.90;;;;;;5107301;28;20462;-75
2023/03/21 03:07:01;;;;;;;1.50;1.40;;;7.10;99.90;;;;;;5102435;28;20455;-75
2023/03/21 03:09:38;;;;;;;1.83;1.40;;;7.10;99.90;;;;;;5102408;28;20447;-75
2023/03/21 03:12:21;;;;;;;1.43;1.33;;;7.10;99.90;;;;;;5105603;28;21146;-76
2023/03/21 03:14:57;;;;;;;1.50;1.40;;;7.10;99.90;;;;;;5095734;28;20453;-75
2023/03/21 03:17:37;;;;;;;2.00;1.80;;;7.10;99.90;;;;;;5103109;28;20465;-75
2023/03/21 03:20:18;;;;;;;1.53;1.43;;;7.00;99.90;;;;;;5106903;28;20508;-76
2023/03/21 03:22:53;;;;;;;1.80;1.70;;;7.00;99.90;;;;;;5095128;28;20474;-76
2023/03/21 03:25:25;;;;;;;1.63;1.53;;;6.90;99.90;;;;;;5098414;28;20451;-76
2023/03/21 03:27:54;;;;;;;1.53;1.40;;;6.90;99.90;;;;;;5100695;28;20466;-75
2023/03/21 03:30:22;;;;;;;5.03;1.70;;;6.80;99.90;;;;;;5103064;28;20452;-76
2023/03/21 03:32:53;;;;;;;1.80;1.70;;;6.70;99.90;;;;;;5110730;27;20507;-75
2023/03/21 03:35:22;;;;;;;1.90;1.60;;;6.50;99.90;;;;;;5111859;27;20466;-76
2023/03/21 03:37:54;;;;;;;1.27;1.17;;;6.40;99.90;;;;;;5094288;28;20463;-75
2023/03/21 03:40:26;;;;;;;1.57;1.27;;;6.30;99.90;;;;;;5103458;28;20450;-75
2023/03/21 03:42:56;;;;;;;1.90;1.37;;;6.20;99.90;;;;;;5093695;28;20514;-75
2023/03/21 03:45:29;;;;;;;2.70;2.00;;;6.20;99.90;;;;;;5095088;28;20515;-76
2023/03/21 03:48:04;;;;;;;2.13;1.57;;;6.00;99.90;;;;;;5105767;28;20515;-75
2023/03/21 03:50:37;;;;;;;7.50;2.30;;;5.90;99.90;;;;;;5100859;28;20523;-75
2023/03/21 03:53:10;;;;;;;1.93;1.47;;;5.90;99.90;;;;;;5102447;28;20446;-75
2023/03/21 03:55:40;;;;;;;1.50;1.30;;;5.80;99.90;;;;;;5102908;28;20546;-75
2023/03/21 03:58:07;;;;;;;1.77;1.67;;;5.70;99.90;;;;;;5098437;28;20451;-75
2023/03/21 04:00:35;;;;;;;2.67;2.47;;;5.70;99.90;;;;;;5089975;28;20451;-75
2023/03/21 04:03:02;;;;;;;1.70;1.60;;;5.80;99.90;;;;;;5096988;28;20492;-75
2023/03/21 04:05:29;;;;;;;1.87;1.77;;;5.90;99.90;;;;;;5100973;28;20439;-75
2023/03/21 04:07:56;;;;;;;2.00;1.83;;;5.90;99.90;;;;;;5102095;28;20833;-76
2023/03/21 04:10:23;;;;;;;1.93;1.77;;;6.00;99.90;;;;;;5104727;28;20535;-76
2023/03/21 04:12:52;;;;;;;2.33;1.80;;;6.00;99.90;;;;;;5099963;28;21036;-75
2023/03/21 04:15:19;;;;;;;2.00;1.87;;;6.00;99.90;;;;;;5094483;28;20466;-76
2023/03/21 04:17:46;;;;;;;1.70;1.60;;;6.00;99.90;;;;;;5100434;28;20525;-76
2023/03/21 04:20:13;;;;;;;3.10;1.90;;;6.00;99.90;;;;;;5098645;28;20459;-77
2023/03/21 04:22:40;;;;;;;3.83;1.83;;;6.00;99.90;;;;;;5101674;28;20495;-76
2023/03/21 04:25:08;;;;;;;2.07;1.40;;;6.00;99.90;;;;;;5097613;28;20451;-76
2023/03/21 04:27:35;;;;;;;1.73;1.60;;;5.90;99.90;;;;;;5107006;28;20547;-76
2023/03/21 04:30:06;;;;;;;1.67;1.57;;;5.80;99.90;;;;;;5113881;27;20457;-76
2023/03/21 04:32:38;;;;;;;2.27;1.60;;;5.80;99.90;;;;;;5094167;28;20456;-76
2023/03/21 04:35:07;;;;;;;1.60;1.50;;;5.70;99.90;;;;;;5102815;28;20537;-76
2023/03/21 04:37:35;;;;;;;1.67;1.57;;;5.70;99.90;;;;;;5105543;28;20514;-76
2023/03/21 04:40:05;;;;;;;1.33;1.00;;;5.60;99.90;;;;;;5099354;28;20471;-77
2023/03/21 04:42:33;;;;;;;1.87;1.63;;;5.60;99.90;;;;;;5096802;28;21060;-76
2023/03/21 04:45:01;;;;;;;2.33;2.13;;;5.40;99.90;;;;;;5103392;28;20447;-77
2023/03/21 04:47:30;;;;;;;1.50;1.37;;;5.40;99.90;;;;;;5099266;28;20447;-76
2023/03/21 04:49:57;;;;;;;6.50;1.60;;;5.30;99.90;;;;;;5099947;28;20520;-76
2023/03/21 04:52:24;;;;;;;1.97;1.70;;;5.40;99.90;;;;;;5097162;28;20461;-76
2023/03/21 04:54:51;;;;;;;2.20;1.80;;;5.30;99.90;;;;;;5102490;28;20481;-76
2023/03/21 04:57:18;;;;;;;1.53;1.43;;;5.30;99.90;;;;;;5095133;28;20470;-76
2023/03/21 04:59:45;;;;;;;2.50;1.53;;;5.20;99.90;;;;;;5100426;28;20443;-77
2023/03/21 05:02:13;;;;;;;2.93;1.50;;;5.20;99.90;;;;;;5106258;28;20486;-76
2023/03/21 05:04:41;;;;;;;2.07;1.60;;;5.10;99.90;;;;;;5103747;28;20508;-76
2023/03/21 05:07:08;;;;;;;1.83;1.73;;;5.10;99.90;;;;;;5097972;28;20466;-76
2023/03/21 05:09:35;;;;;;;1.50;1.40;;;5.10;99.90;;;;;;5096349;28;20467;-77
2023/03/21 05:12:03;;;;;;;3.23;1.23;;;5.20;99.90;;;;;;5091496;28;20447;-75
2023/03/21 05:14:29;;;;;;;2.13;1.63;;;5.30;99.90;;;;;;5093045;28;20504;-76
2023/03/21 05:16:56;;;;;;;1.90;1.80;;;5.40;99.90;;;;;;5101699;28;20889;-76
2023/03/21 05:19:33;;;;;;;2.27;2.17;;;5.50;99.90;;;;;;5100828;28;20454;-76
2023/03/21 05:22:03;;;;;;;4.30;1.40;;;5.50;99.90;;;;;;5091039;28;20540;-76
2023/03/21 05:24:31;;;;;;;1.33;1.23;;;5.70;99.90;;;;;;5097950;28;21029;-76
2023/03/21 05:27:01;;;;;;;3.23;2.13;;;5.90;99.90;;;;;;5109663;27;20485;-76
2023/03/21 05:29:29;;;;;;;1.80;1.70;;;6.00;99.90;;;;;;5100353;28;20450;-77
2023/03/21 05:31:56;;;;;;;2.57;2.37;;;6.10;99.90;;;;;;5093936;28;20463;-81
2023/03/21 05:34:24;;;;;;;1.80;1.70;;;6.20;99.90;;;;;;5101159;28;20856;-76
2023/03/21 05:36:51;;;;;;;1.97;1.77;;;6.40;99.90;;;;;;5098856;28;20450;-75
2023/03/21 05:39:20;;;;;;;3.53;1.47;;;6.40;99.90;;;;;;5102409;28;20871;-75
2023/03/21 05:41:46;;;;;;;3.77;2.07;;;6.60;99.90;;;;;;5100724;28;20455;-75
2023/03/21 05:44:13;;;;;;;5.17;4.67;;;6.70;99.90;;;;;;5094230;28;21003;-75
2023/03/21 05:46:42;;;;;;;3.27;2.97;;;6.90;99.90;;;;;;5098773;28;20657;-76
2023/03/21 05:49:10;;;;;;;4.73;3.90;;;7.00;99.90;;;;;;5098827;28;20481;-76
2023/03/21 05:51:37;;;;;;;3.03;2.77;;;7.00;99.90;;;;;;5094567;28;20520;-76
2023/03/21 05:54:05;;;;;;;2.80;2.20;;;7.10;99.90;;;;;;5092926;28;20490;-76
2023/03/21 05:56:33;;;;;;;2.10;1.93;;;7.10;99.90;;;;;;5100190;28;20471;-77
2023/03/21 05:59:00;;;;;;;1.30;1.20;;;7.20;99.90;;;;;;5098723;28;20946;-75
2023/03/21 06:01:27;;;;;;;2.10;1.63;;;7.10;99.90;;;;;;5091200;28;21242;-76
2023/03/21 06:03:54;;;;;;;2.17;2.00;;;7.10;99.90;;;;;;5099714;28;20512;-76
2023/03/21 06:06:21;;;;;;;3.27;2.17;;;7.20;99.90;;;;;;5098945;28;20979;-76
2023/03/21 06:08:48;;;;;;;2.77;1.90;;;7.30;99.90;;;;;;5087541;28;20971;-76
2023/03/21 06:11:23;;;;;;;2.67;2.47;;;7.60;99.90;;;;;;5096730;28;20548;-75
2023/03/21 06:13:52;;;;;;;2.37;2.17;;;7.80;99.90;;;;;;5097644;28;21103;-75
2023/03/21 06:16:19;;;;;;;2.00;1.40;;;8.10;99.90;;;;;;5099041;28;20462;-76
2023/03/21 06:18:46;;;;;;;1.80;1.40;;;8.20;99.90;;;;;;5097909;28;20999;-76
2023/03/21 06:21:13;;;;;;;1.80;1.70;;;8.20;99.90;;;;;;5097151;28;20693;-76
2023/03/21 06:23:40;;;;;;;1.50;1.40;;;8.30;99.90;;;;;;5100725;28;20579;-76
2023/03/21 06:26:07;;;;;;;1.77;1.67;;;8.50;99.90;;;;;;5099707;28;20484;-77
2023/03/21 06:28:34;;;;;;;2.40;2.20;;;8.60;99.90;;;;;;5101265;28;20462;-76
2023/03/21 06:31:03;;;;;;;3.17;1.60;;;8.70;99.90;;;;;;5092904;28;21059;-76
2023/03/21 06:33:30;;;;;;;1.60;1.50;;;8.90;99.90;;;;;;5090680;28;20532;-76
2023/03/21 06:35:58;;;;;;;2.20;1.70;;;9.00;99.90;;;;;;5095629;28;20981;-76
2023/03/21 06:38:26;;;;;;;1.37;1.27;;;9.20;99.90;;;;;;5102588;28;20467;-76
2023/03/21 06:40:53;;;;;;;1.63;1.33;;;9.10;99.90;;;;;;5095573;28;20610;-75
2023/03/21 06:43:20;;;;;;;3.80;1.63;;;9.20;99.90;;;;;;5107048;28;20513;-76
2023/03/21 06:45:47;;;;;;;2.27;1.43;;;9.30;99.90;;;;;;5102604;28;20445;-75
2023/03/21 06:48:15;;;;;;;1.87;1.57;;;9.20;99.90;;;;;;5102570;28;20443;-76
2023/03/21 06:50:42;;;;;;;2.77;1.60;;;9.30;99.90;;;;;;5103686;28;20463;-75
2023/03/21 06:53:10;;;;;;;2.57;1.17;;;9.30;99.90;;;;;;5101780;28;20466;-75
2023/03/21 06:55:37;;;;;;;1.60;1.50;;;9.40;99.90;;;;;;5102166;28;20463;-76
2023/03/21 06:58:04;;;;;;;2.07;1.50;;;9.50;99.90;;;;;;5096179;28;20438;-76
2023/03/21 07:00:31;;;;;;;1.97;1.60;;;9.60;99.90;;;;;;5098897;28;20543;-76
2023/03/21 07:02:59;;;;;;;2.50;1.87;;;9.60;99.90;;;;;;5099821;28;20483;-76
2023/03/21 07:05:28;;;;;;;3.47;1.80;;;9.70;99.90;;;;;;5107071;28;20469;-76
2023/03/21 07:07:55;;;;;;;2.53;1.90;;;9.80;99.90;;;;;;5107485;28;20507;-75
2023/03/21 07:10:21;;;;;;;2.23;1.93;;;9.90;99.90;;;;;;5108480;28;20447;-77
2023/03/21 07:12:48;;;;;;;4.90;1.50;;;10.20;99.90;;;;;;5099816;28;20519;-76
2023/03/21 07:15:16;;;;;;;1.80;1.40;;;10.40;99.90;;;;;;5103211;28;20851;-83
2023/03/21 07:17:43;;;;;;;4.63;1.70;;;10.70;99.90;;;;;;5104871;28;20982;-75
2023/03/21 07:20:11;;;;;;;3.00;1.17;;;10.90;99.90;;;;;;5105997;28;20446;-75
2023/03/21 07:22:40;;;;;;;1.83;1.73;;;11.00;99.90;;;;;;5096488;28;20535;-83
2023/03/21 07:25:08;;;;;;;1.40;1.30;;;11.20;99.90;;;;;;5097939;28;20904;-79
2023/03/21 07:27:35;;;;;;;2.03;1.93;;;11.20;99.90;;;;;;5105211;28;20486;-80
2023/03/21 07:30:03;;;;;;;1.60;1.50;;;11.10;99.90;;;;;;5100374;28;20458;-74
2023/03/21 07:32:33;;;;;;;2.67;1.77;;;11.20;99.90;;;;;;5105637;28;20463;-75
2023/03/21 07:35:00;;;;;;;1.40;1.20;;;11.10;99.90;;;;;;5101038;28;21193;-80
2023/03/21 07:37:27;;;;;;;1.83;1.73;;;11.10;99.90;;;;;;5102564;28;20882;-75
2023/03/21 07:39:56;;;;;;;2.43;1.67;;;11.20;99.90;;;;;;5105389;28;20436;-81
2023/03/21 07:42:23;;;;;;;2.17;1.17;;;11.20;99.90;;;;;;5096930;28;20451;-75
2023/03/21 07:44:51;;;;;;;5.50;2.00;;;11.10;99.90;;;;;;5104421;28;20582;-75
2023/03/21 07:47:18;;;;;;;2.47;2.27;;;11.10;99.90;;;;;;5107149;28;20548;-76
2023/03/21 07:49:45;;;;;;;2.07;1.90;;;11.10;99.90;;;;;;5105860;28;20450;-74
2023/03/21 07:52:12;;;;;;;3.90;1.87;;;11.20;99.90;;;;;;5098063;28;20504;-75
2023/03/21 07:54:39;;;;;;;2.77;2.03;;;11.20;99.90;;;;;;5101116;28;20462;-75
2023/03/21 07:57:07;;;;;;;2.60;1.87;;;11.30;99.90;;;;;;5104583;28;21082;-74
2023/03/21 07:59:34;;;;;;;2.20;2.10;;;11.20;99.90;;;;;;5102886;28;20498;-74
2023/03/21 08:02:01;;;;;;;2.40;2.23;;;11.30;99.90;;;;;;5104221;28;20511;-74
2023/03/21 08:04:28;;;;;;;3.03;2.83;;;11.40;99.90;;;;;;5104252;28;20897;-73
2023/03/21 08:06:56;;;;;;;2.20;2.00;;;11.40;99.90;;;;;;5102626;28;21126;-75
2023/03/21 08:09:23;;;;;;;3.43;2.47;;;11.40;99.90;;;;;;5096888;28;20455;-75
2023/03/21 08:11:50;;;;;;;3.17;2.60;;;11.70;99.90;;;;;;5104006;28;20531;-75
2023/03/21 08:14:18;;;;;;;2.43;2.03;;;11.80;99.90;;;;;;5102300;28;21238;-79
2023/03/21 08:16:45;;;;;;;2.37;2.17;;;11.80;99.90;;;;;;5102251;28;20546;-75
2023/03/21 08:19:12;;;;;;;2.73;2.53;;;11.90;99.90;;;;;;5106608;28;20439;-74
2023/03/21 08:21:39;;;;;;;2.10;1.90;;;11.70;99.90;;;;;;5101136;28;20454;-75
2023/03/21 08:24:07;;;;;;;2.53;2.43;;;11.70;99.90;;;;;;5102475;28;20514;-74
2023/03/21 08:26:34;;;;;;;2.20;2.00;;;11.90;99.90;;;;;;5102725;28;20506;-75
2023/03/21 08:29:01;;;;;;;2.70;2.20;;;11.90;99.90;;;;;;5105477;28;20462;-75
2023/03/21 08:31:30;;;;;;;2.77;2.57;;;12.00;99.90;;;;;;5100876;28;21110;-74
2023/03/21 08:33:57;;;;;;;2.50;2.30;;;12.20;99.90;;;;;;5101286;28;20512;-75
2023/03/21 08:36:25;;;;;;;3.57;2.57;;;12.10;99.90;;;;;;5099072;28;20467;-74
2023/03/21 08:38:55;;;;;;;3.70;2.60;;;12.20;99.90;;;;;;5103422;28;20462;-75
2023/03/21 08:41:24;;;;;;;2.03;1.93;;;12.40;99.90;;;;;;5099502;28;20475;-75
2023/03/21 08:43:51;;;;;;;1.90;1.80;;;12.50;99.90;;;;;;5100322;28;20511;-72
2023/03/21 08:46:18;;;;;;;2.23;1.93;;;12.40;99.90;;;;;;5099827;28;20467;-73
2023/03/21 08:48:46;;;;;;;2.43;2.33;;;12.50;99.90;;;;;;5099777;28;20451;-73
2023/03/21 08:51:13;;;;;;;2.03;1.73;;;12.50;99.90;;;;;;5103527;28;20463;-74
2023/03/21 08:53:41;;;;;;;2.63;2.43;;;12.50;99.90;;;;;;5099931;28;20531;-75
2023/03/21 08:56:09;;;;;;;2.70;2.50;;;12.40;99.90;;;;;;5098526;28;20516;-73
2023/03/21 08:58:36;;;;;;;2.80;2.20;;;12.50;99.90;;;;;;5103703;28;20450;-74
2023/03/21 09:01:03;;;;;;;3.03;2.83;;;12.40;99.90;;;;;;5092538;28;20481;-75
2023/03/21 09:03:30;;;;;;;2.80;2.60;;;12.50;99.90;;;;;;5099892;28;20577;-75
2023/03/21 09:05:59;;;;;;;3.40;3.10;;;12.50;99.90;;;;;;5102335;28;21056;-74
2023/03/21 09:08:26;;;;;;;3.40;3.20;;;12.40;99.90;;;;;;5098991;28;20466;-75
2023/03/21 09:10:53;;;;;;;2.77;2.57;;;12.50;99.90;;;;;;5100503;28;20519;-74
2023/03/21 09:13:21;;;;;;;2.40;2.30;;;12.70;99.90;;;;;;5102179;28;20498;-75
2023/03/21 09:15:48;;;;;;;3.43;3.10;;;12.60;99.90;;;;;;5104050;28;20463;-75
2023/03/21 09:18:16;;;;;;;3.20;3.00;;;12.80;99.90;;;;;;5104456;28;21023;-75
2023/03/21 09:20:46;;;;;;;2.40;2.30;;;12.70;99.90;;;;;;5101280;28;20458;-74
2023/03/21 09:23:15;;;;;;;3.23;3.03;;;12.80;99.90;;;;;;5096471;28;20971;-74
2023/03/21 09:25:42;;;;;;;2.60;2.40;;;13.00;99.90;;;;;;5099449;28;21109;-73
2023/03/21 09:28:09;;;;;;;2.73;2.43;;;12.90;99.90;;;;;;5096166;28;20467;-74
2023/03/21 09:30:37;;;;;;;3.23;2.93;;;13.10;99.90;;;;;;5103042;28;21151;-75
2023/03/21 09:33:18;;;;;;;4.13;3.70;;;13.10;99.90;;;;;;5099658;28;20466;-75
2023/03/21 09:35:44;;;;;;;3.93;3.63;;;13.30;99.90;;;;;;5095714;28;20454;-74
2023/03/21 09:38:12;;;;;;;3.20;3.00;;;13.00;99.90;;;;;;5104993;28;20846;-74
2023/03/21 09:40:57;;;;;;;3.40;2.57;;;13.00;99.90;;;;;;5096095;28;21002;-75
2023/03/21 09:43:36;;;;;;;3.10;2.90;;;13.30;99.90;;;;;;5099638;28;20954;-75
2023/03/21 09:46:09;;;;;;;2.53;2.33;;;13.30;99.90;;;;;;5099434;28;20534;-74
2023/03/21 09:48:44;;;;;;;3.80;2.67;;;13.60;99.90;;;;;;5104181;28;20462;-75
2023/03/21 09:51:17;;;;;;;3.77;3.47;;;13.70;99.90;;;;;;5092713;28;20482;-74
2023/03/21 09:53:48;;;;;;;5.00;4.63;;;13.50;99.90;;;;;;5100926;28;20470;-74
2023/03/21 09:56:17;;;;;;;2.80;2.60;;;13.50;99.90;;;;;;5098378;28;20451;-75
2023/03/21 09:58:49;;;;;;;3.50;3.30;;;13.60;99.90;;;;;;5098753;28;20462;-74
2023/03/21 10:01:27;;;;;;;2.30;1.90;;;13.90;99.90;;;;;;5093068;28;20475;-75
2023/03/21 10:03:54;;;;;;;3.33;3.03;;;14.00;99.90;;;;;;5100608;28;20483;-75
2023/03/21 10:06:27;;;;;;;2.70;2.50;;;14.00;99.90;;;;;;5098134;28;20455;-75
2023/03/21 10:08:57;;;;;;;2.77;2.50;;;14.00;99.90;;;;;;5096930;28;20446;-75
2023/03/21 10:11:28;;;;;;;3.67;3.33;;;14.00;99.90;;;;;;5104855;28;20963;-75
2023/03/21 10:13:59;;;;;;;3.17;2.87;;;14.10;99.90;;;;;;5089741;28;20470;-75
2023/03/21 10:16:30;;;;;;;2.47;2.27;;;14.10;99.90;;;;;;5095621;28;20861;-74
2023/03/21 10:18:59;;;;;;;3.73;3.40;;;14.00;99.90;;;;;;5095749;28;20520;-75
2023/03/21 10:21:28;;;;;;;3.07;2.87;;;14.20;99.90;;;;;;5102916;28;20489;-75
2023/03/21 10:23:57;;;;;;;4.30;2.97;;;14.20;99.90;;;;;;5097564;28;20560;-75
2023/03/21 10:26:29;;;;;;;2.33;2.13;;;14.40;99.90;;;;;;5107075;28;20538;-76
2023/03/21 10:29:00;;;;;;;3.20;2.90;;;14.30;99.40;;;;;;5102302;28;20457;-75
2023/03/21 10:31:29;;;;;;;2.77;2.57;;;14.40;99.00;;;;;;5103692;28;20443;-75
2023/03/21 10:34:01;;;;;;;2.50;2.30;;;14.50;99.90;;;;;;5098592;28;20524;-75
2023/03/21 10:36:31;;;;;;;2.43;2.23;;;14.40;99.00;;;;;;5103071;28;20454;-73
2023/03/21 10:39:03;;;;;;;2.17;2.07;;;14.70;99.00;;;;;;5106356;28;20538;-74
2023/03/21 10:41:32;;;;;;;2.67;2.47;;;14.70;99.30;;;;;;5104789;28;20626;-73
2023/03/21 10:44:08;;;;;;;2.80;2.30;;;14.30;97.90;;;;;;5102483;28;20494;-74
2023/03/21 10:46:35;;;;;;;2.40;2.20;;;14.30;98.20;;;;;;5106029;28;20534;-75
2023/03/21 10:49:02;;;;;;;2.20;2.10;;;14.50;99.90;;;;;;5096287;28;20450;-74
2023/03/21 10:51:33;;;;;;;2.97;2.77;;;14.70;99.70;;;;;;5107899;28;20458;-73
2023/03/21 10:54:06;;;;;;;2.50;2.30;;;14.70;98.00;;;;;;5104516;28;20462;-74
2023/03/21 10:56:38;;;;;;;5.63;3.13;;;14.70;98.70;;;;;;5103774;28;20813;-74
2023/03/21 10:59:08;;;;;;;7.43;3.90;;;14.80;97.50;;;;;;5107281;28;20451;-74
2023/03/21 11:01:38;;;;;;;3.00;2.80;;;15.00;99.90;;;;;;5106409;28;20470;-75
2023/03/21 11:04:10;;;;;;;3.13;2.83;;;14.60;98.40;;;;;;5102256;28;20490;-73
2023/03/21 11:06:39;;;;;;;2.27;2.17;;;14.30;97.60;;;;;;5108419;28;20935;-75
2023/03/21 11:09:12;;;;;;;3.33;3.13;;;14.30;98.50;;;;;;5106434;28;21059;-74
2023/03/21 11:11:42;;;;;;;13.03;4.07;;;14.20;98.70;;;;;;5101551;28;20511;-73
2023/03/21 11:14:26;;;;;;;3.50;3.20;;;14.00;98.70;;;;;;5100491;28;20523;-74
2023/03/21 11:16:53;;;;;;;4.60;4.07;;;14.20;99.00;;;;;;5100257;28;20447;-75
2023/03/21 11:19:29;;;;;;;2.70;2.50;;;14.20;99.10;;;;;;5107185;28;20447;-74
2023/03/21 11:21:57;;;;;;;2.67;2.57;;;13.90;98.00;;;;;;5099937;28;20542;-74
2023/03/21 11:24:29;;;;;;;2.80;2.30;;;14.00;98.40;;;;;;5099970;28;20498;-73
2023/03/21 11:26:58;;;;;;;3.20;2.73;;;14.40;98.20;;;;;;5103260;28;20483;-75
2023/03/21 11:29:31;;;;;;;2.70;2.50;;;14.90;97.20;;;;;;5100586;28;20446;-74
2023/03/21 11:32:01;;;;;;;3.03;2.70;;;14.80;97.40;;;;;;5103146;28;20455;-74
2023/03/21 11:34:33;;;;;;;2.47;2.27;;;14.60;97.00;;;;;;5102937;28;20479;-72
2023/03/21 11:37:02;;;;;;;4.93;3.03;;;14.80;97.60;;;;;;5100784;28;20462;-73
2023/03/21 11:39:38;;;;;;;2.93;2.73;;;14.80;95.70;;;;;;5101031;28;20469;-73
2023/03/21 11:42:22;;;;;;;2.80;2.60;;;14.50;96.70;;;;;;5100153;28;20530;-73
2023/03/21 11:44:57;;;;;;;3.47;3.27;;;14.60;96.30;;;;;;5102438;28;20995;-73
2023/03/21 11:47:24;;;;;;;3.83;3.30;;;14.80;98.10;;;;;;5099993;28;20490;-76
2023/03/21 11:49:52;;;;;;;3.10;2.90;;;15.00;97.80;;;;;;5097643;28;20520;-73
2023/03/21 11:52:29;;;;;;;5.10;3.33;;;15.20;95.40;;;;;;5103118;28;20466;-73
2023/03/21 11:55:10;;;;;;;2.23;2.03;;;15.10;94.60;;;;;;5106788;28;20446;-74
2023/03/21 11:57:47;;;;;;;3.17;2.97;;;15.10;96.40;;;;;;5096518;28;20557;-72
2023/03/21 12:00:22;;;;;;;2.37;2.27;;;15.20;95.60;;;;;;5099017;28;20996;-74
2023/03/21 12:03:29;;;;;;;1.90;1.80;;;15.30;93.70;;;;;;5096806;28;21028;-73
2023/03/21 12:05:59;;;;;;;2.10;2.00;;;15.50;95.30;;;;;;5057355;28;21321;-73
2023/03/21 12:08:36;;;;;;;2.40;2.30;;;15.70;93.60;;;;;;5100155;28;20459;-75
2023/03/21 12:11:15;;;;;;;2.93;2.07;;;15.80;94.60;;;;;;5101201;28;20454;-75
2023/03/21 12:13:54;;;;;;;2.60;2.43;;;15.80;93.50;;;;;;5099319;28;20454;-73
2023/03/21 12:16:56;;;;;;;2.60;2.40;;;16.10;91.10;;;;;;5101503;28;20519;-74
2023/03/21 12:19:53;;;;;;;4.10;3.50;;;15.80;92.40;;;;;;5037590;28;20456;-75
2023/03/21 12:22:27;;;;;;;3.03;2.83;;;15.50;92.40;;;;;;5100388;28;21012;-76
2023/03/21 12:24:56;;;;;;;3.67;3.37;;;15.40;93.10;;;;;;5100839;28;20485;-75
2023/03/21 12:27:38;;;;;;;4.07;2.77;;;15.60;95.40;;;;;;5100537;28;20485;-75
2023/03/21 12:30:22;;;;;;;2.93;2.63;;;15.60;92.40;;;;;;5101052;28;20466;-75
2023/03/21 12:33:04;;;;;;;5.53;3.80;;;15.70;91.90;;;;;;5101962;28;20447;-74
2023/03/21 12:35:53;;;;;;;2.80;2.60;;;15.60;91.90;;;;;;5101782;28;20467;-75
2023/03/21 12:38:25;;;;;;;3.33;2.80;;;15.80;93.50;;;;;;5098958;28;21023;-75
2023/03/21 12:41:08;;;;;;;3.47;3.17;;;15.80;94.00;;;;;;5095344;28;20451;-75
2023/03/21 12:43:43;;;;;;;3.13;2.77;;;15.90;92.70;;;;;;5098808;28;20524;-75
2023/03/21 12:46:17;;;;;;;4.07;3.23;;;15.90;93.20;;;;;;5105946;28;20513;-75
2023/03/21 12:48:48;;;;;;;3.67;3.37;;;15.60;92.30;;;;;;5103369;28;20591;-75
2023/03/21 12:51:18;;;;;;;3.60;3.40;;;15.80;91.40;;;;;;5102956;28;20458;-74
2023/03/21 12:53:52;;;;;;;3.60;3.40;;;15.90;90.80;;;;;;5102038;28;20540;-75
2023/03/21 12:56:23;;;;;;;4.10;3.57;;;16.00;91.30;;;;;;5094364;28;20547;-74
2023/03/21 12:58:57;;;;;;;4.47;3.90;;;16.20;92.00;;;;;;5093320;28;20486;-76
2023/03/21 13:01:28;;;;;;;3.53;3.03;;;16.10;92.80;;;;;;5101530;28;20447;-75
2023/03/21 13:04:24;;;;;;;4.93;3.83;;;15.80;92.40;;;;;;5101414;28;20535;-74
2023/03/21 13:06:53;;;;;;;5.20;3.57;;;15.80;92.10;;;;;;5094060;28;20469;-74
2023/03/21 13:09:28;;;;;;;3.77;3.47;;;15.90;92.60;;;;;;5092258;28;20704;-74
2023/03/21 13:12:01;;;;;;;3.17;2.73;;;16.00;92.30;;;;;;5098249;28;20505;-75